Time;durP1;ratioP1;P1;durP2;ratioP2;P2;SDS_P1;SDS_P2;PMS_P1;PMS_P2;Temp;Humidity;BMP_temperature;BMP_pressure;BME280_temperature;BME280_humidity;BME280_pressure;Samples;Min_cycle;Max_cycle;Signal;HPM_P1;HPM_P2
2023/09/18 00:00:11;;;;;;;8.77;6.90;;;;;;;;;;1052039;28;23447;-65
2023/09/18 00:00:51;;;;;;;9.15;6.95;;;;;;;;;;1052401;28;20385;-66
2023/09/18 00:01:41;;;;;;;8.60;6.60;;;;;;;;;;1050272;28;20048;-65
2023/09/18 00:02:12;;;;;;;9.05;6.22;;;;;;;;;;1051767;28;20044;-67
2023/09/18 00:02:43;;;;;;;7.00;6.10;;;;;;;;;;1052159;28;20048;-64
2023/09/18 00:03:13;;;;;;;9.60;7.20;;;;;;;;;;1051416;28;20787;-66
2023/09/18 00:03:44;;;;;;;13.60;6.60;;;;;;;;;;1050008;28;20053;-65
2023/09/18 00:04:14;;;;;;;7.55;6.28;;;;;;;;;;1052755;28;20081;-66
2023/09/18 00:04:45;;;;;;;7.80;6.28;;;;;;;;;;1053604;28;20043;-65
2023/09/18 00:05:15;;;;;;;9.18;6.93;;;;;;;;;;1052175;28;20048;-66
2023/09/18 00:05:50;;;;;;;9.95;7.13;;;;;;;;;;1054540;28;20082;-66
2023/09/18 00:06:23;;;;;;;10.48;6.53;;;;;;;;;;1051517;28;20171;-67
2023/09/18 00:06:54;;;;;;;8.15;6.97;;;;;;;;;;1052965;28;20070;-65
2023/09/18 00:07:24;;;;;;;9.98;6.53;;;;;;;;;;1052810;28;20400;-65
2023/09/18 00:07:55;;;;;;;8.55;6.72;;;;;;;;;;1052849;28;20067;-65
2023/09/18 00:08:26;;;;;;;7.22;6.53;;;;;;;;;;1053918;28;20108;-66
2023/09/18 00:08:57;;;;;;;9.20;6.68;;;;;;;;;;1053190;28;20185;-65
2023/09/18 00:09:27;;;;;;;9.18;6.50;;;;;;;;;;1051788;28;20054;-64
2023/09/18 00:09:58;;;;;;;8.32;7.07;;;;;;;;;;1052542;28;20048;-65
2023/09/18 00:10:30;;;;;;;8.85;6.63;;;;;;;;;;1050702;28;20566;-65
2023/09/18 00:11:00;;;;;;;9.02;6.28;;;;;;;;;;1052366;28;20070;-64
2023/09/18 00:11:31;;;;;;;8.32;5.88;;;;;;;;;;1050982;28;20423;-64
2023/09/18 00:12:02;;;;;;;9.50;6.43;;;;;;;;;;1050970;28;20047;-65
2023/09/18 00:12:32;;;;;;;9.93;6.22;;;;;;;;;;1051660;28;20044;-64
2023/09/18 00:13:03;;;;;;;10.63;6.50;;;;;;;;;;1053896;28;20055;-65
2023/09/18 00:13:33;;;;;;;7.60;6.50;;;;;;;;;;1054045;27;20138;-66
2023/09/18 00:14:04;;;;;;;10.20;7.10;;;;;;;;;;1053101;28;20071;-66
2023/09/18 00:14:36;;;;;;;6.97;6.32;;;;;;;;;;1051047;27;20055;-65
2023/09/18 00:15:08;;;;;;;7.22;6.53;;;;;;;;;;1051433;28;20047;-67
2023/09/18 00:15:40;;;;;;;7.32;6.50;;;;;;;;;;1052118;28;20555;-65
2023/09/18 00:16:12;;;;;;;10.80;7.05;;;;;;;;;;1052589;28;20373;-66
2023/09/18 00:16:43;;;;;;;10.73;6.25;;;;;;;;;;1052304;28;20146;-65
2023/09/18 00:17:13;;;;;;;9.18;6.53;;;;;;;;;;1055508;27;20104;-66
2023/09/18 00:17:44;;;;;;;8.48;6.10;;;;;;;;;;1054388;28;20461;-64
2023/09/18 00:18:15;;;;;;;7.85;6.20;;;;;;;;;;1051395;28;20488;-65
2023/09/18 00:18:46;;;;;;;6.38;5.75;;;;;;;;;;1051282;28;20063;-67
2023/09/18 00:19:16;;;;;;;11.57;6.53;;;;;;;;;;1051420;28;20051;-65
2023/09/18 00:19:47;;;;;;;7.05;5.93;;;;;;;;;;1052062;28;20076;-65
2023/09/18 00:20:18;;;;;;;9.18;6.32;;;;;;;;;;1053655;28;20089;-66
2023/09/18 00:20:49;;;;;;;8.68;5.80;;;;;;;;;;1052575;28;20128;-65
2023/09/18 00:21:19;;;;;;;8.25;5.70;;;;;;;;;;1053936;28;20072;-65
2023/09/18 00:21:52;;;;;;;10.43;6.30;;;;;;;;;;1053373;28;20047;-65
2023/09/18 00:22:24;;;;;;;7.38;6.28;;;;;;;;;;1050046;28;20043;-67
2023/09/18 00:22:55;;;;;;;8.18;6.53;;;;;;;;;;1047820;28;20052;-65
2023/09/18 00:23:26;;;;;;;7.97;6.07;;;;;;;;;;1047653;28;20075;-66
2023/09/18 00:23:58;;;;;;;7.75;6.45;;;;;;;;;;1050948;28;20122;-64
2023/09/18 00:24:28;;;;;;;7.85;6.63;;;;;;;;;;1047767;28;20120;-66
2023/09/18 00:24:59;;;;;;;8.13;6.68;;;;;;;;;;1049113;28;20109;-65
2023/09/18 00:25:30;;;;;;;11.05;6.50;;;;;;;;;;1046203;28;20048;-65
2023/09/18 00:26:01;;;;;;;8.57;6.80;;;;;;;;;;1048177;28;20454;-66
2023/09/18 00:26:31;;;;;;;10.70;6.55;;;;;;;;;;1047521;28;20397;-64
2023/09/18 00:27:02;;;;;;;9.02;7.07;;;;;;;;;;1047707;28;20040;-65
2023/09/18 00:27:32;;;;;;;9.10;6.60;;;;;;;;;;1047504;28;20051;-66
2023/09/18 00:28:04;;;;;;;8.80;7.55;;;;;;;;;;1048447;28;20875;-67
2023/09/18 00:28:35;;;;;;;9.85;7.32;;;;;;;;;;1046382;28;20052;-64
2023/09/18 00:29:05;;;;;;;8.32;6.88;;;;;;;;;;1050202;28;20067;-65
2023/09/18 00:29:35;;;;;;;8.85;7.07;;;;;;;;;;1047889;28;20048;-66
2023/09/18 00:30:06;;;;;;;7.50;6.80;;;;;;;;;;1048485;28;20052;-66
2023/09/18 00:30:38;;;;;;;7.90;7.10;;;;;;;;;;1047794;28;20183;-65
2023/09/18 00:31:08;;;;;;;9.63;7.00;;;;;;;;;;1047965;28;20130;-64
2023/09/18 00:31:39;;;;;;;10.23;6.50;;;;;;;;;;1050019;28;20105;-66
2023/09/18 00:32:09;;;;;;;8.82;6.82;;;;;;;;;;1050458;28;20151;-66
2023/09/18 00:32:40;;;;;;;8.75;6.57;;;;;;;;;;1051576;28;20043;-67
2023/09/18 00:33:10;;;;;;;7.97;6.80;;;;;;;;;;1050879;28;20492;-66
2023/09/18 00:33:41;;;;;;;10.40;6.78;;;;;;;;;;1050527;28;20055;-67
2023/09/18 00:34:11;;;;;;;8.55;6.60;;;;;;;;;;1053133;28;20200;-65
2023/09/18 00:34:42;;;;;;;9.50;6.43;;;;;;;;;;1051795;28;20039;-66
2023/09/18 00:35:12;;;;;;;9.43;6.57;;;;;;;;;;1054735;28;20134;-65
2023/09/18 00:35:50;;;;;;;7.72;6.93;;;;;;;;;;1054741;27;20059;-65
2023/09/18 00:36:20;;;;;;;7.88;6.25;;;;;;;;;;1050483;28;20495;-66
2023/09/18 00:36:51;;;;;;;8.95;6.45;;;;;;;;;;1051173;28;20480;-66
2023/09/18 00:37:22;;;;;;;10.63;7.20;;;;;;;;;;1051246;28;20048;-66
2023/09/18 00:37:52;;;;;;;7.72;6.75;;;;;;;;;;1053322;28;20062;-66
2023/09/18 00:38:23;;;;;;;8.07;6.75;;;;;;;;;;1052916;28;20517;-66
2023/09/18 00:38:53;;;;;;;9.02;6.65;;;;;;;;;;1052612;28;20043;-64
2023/09/18 00:39:23;;;;;;;15.20;7.45;;;;;;;;;;1052018;28;20052;-66
2023/09/18 00:39:54;;;;;;;8.07;7.22;;;;;;;;;;1055016;28;20067;-65
2023/09/18 00:40:24;;;;;;;9.25;6.88;;;;;;;;;;1051694;28;20055;-65
2023/09/18 00:40:55;;;;;;;10.30;7.35;;;;;;;;;;1053599;28;20075;-66
2023/09/18 00:41:26;;;;;;;10.10;7.10;;;;;;;;;;1051310;28;20048;-65
2023/09/18 00:41:56;;;;;;;8.30;6.63;;;;;;;;;;1054356;28;20047;-65
2023/09/18 00:42:27;;;;;;;8.32;6.88;;;;;;;;;;1053315;28;20048;-65
2023/09/18 00:42:58;;;;;;;9.55;7.63;;;;;;;;;;1052361;28;20584;-66
2023/09/18 00:43:28;;;;;;;12.85;6.93;;;;;;;;;;1051504;28;20453;-65
2023/09/18 00:43:58;;;;;;;9.93;7.68;;;;;;;;;;1051671;28;20461;-67
2023/09/18 00:44:29;;;;;;;10.35;7.25;;;;;;;;;;1050671;28;20051;-66
2023/09/18 00:45:00;;;;;;;8.40;7.07;;;;;;;;;;1051374;28;20058;-67
2023/09/18 00:45:30;;;;;;;8.35;6.95;;;;;;;;;;1050412;28;20369;-65
2023/09/18 00:46:01;;;;;;;9.80;6.95;;;;;;;;;;1051037;28;20160;-66
2023/09/18 00:46:33;;;;;;;9.52;7.05;;;;;;;;;;1053779;28;20704;-65
2023/09/18 00:47:03;;;;;;;7.55;6.53;;;;;;;;;;1054365;28;20067;-67
2023/09/18 00:47:36;;;;;;;7.72;6.95;;;;;;;;;;1053091;28;20039;-65
2023/09/18 00:48:06;;;;;;;9.98;7.75;;;;;;;;;;1052511;28;20042;-65
2023/09/18 00:48:37;;;;;;;10.75;6.93;;;;;;;;;;1051309;28;20063;-65
2023/09/18 00:49:07;;;;;;;8.25;7.13;;;;;;;;;;1052688;28;20506;-65
2023/09/18 00:49:41;;;;;;;12.20;7.72;;;;;;;;;;1054120;28;20453;-64
2023/09/18 00:50:13;;;;;;;9.18;6.80;;;;;;;;;;1050326;28;20036;-65
2023/09/18 00:50:45;;;;;;;10.00;7.70;;;;;;;;;;1050759;28;20047;-66
2023/09/18 00:51:17;;;;;;;9.63;7.35;;;;;;;;;;1051393;27;20052;-65
2023/09/18 00:51:48;;;;;;;9.05;7.53;;;;;;;;;;1049177;28;20156;-67
2023/09/18 00:52:21;;;;;;;10.90;7.13;;;;;;;;;;1047634;28;20080;-66
2023/09/18 00:52:52;;;;;;;9.27;7.25;;;;;;;;;;1048270;28;20064;-65
2023/09/18 00:53:24;;;;;;;9.30;7.35;;;;;;;;;;1048201;28;20085;-65
2023/09/18 00:53:54;;;;;;;11.65;7.30;;;;;;;;;;1050216;28;20044;-65
2023/09/18 00:54:26;;;;;;;11.38;7.53;;;;;;;;;;1049608;28;20048;-66
2023/09/18 00:54:57;;;;;;;11.65;7.40;;;;;;;;;;1051090;28;20408;-64
2023/09/18 00:55:30;;;;;;;12.63;7.35;;;;;;;;;;1053253;28;20487;-65
2023/09/18 00:56:03;;;;;;;9.70;7.47;;;;;;;;;;1052120;28;20080;-65
2023/09/18 00:56:34;;;;;;;10.80;7.78;;;;;;;;;;1048707;28;20044;-66
2023/09/18 00:57:05;;;;;;;7.95;7.15;;;;;;;;;;1048595;28;20090;-65
2023/09/18 00:57:35;;;;;;;9.52;7.35;;;;;;;;;;1049284;28;20044;-67
2023/09/18 00:58:07;;;;;;;11.73;7.43;;;;;;;;;;1046513;28;20101;-65
2023/09/18 00:58:38;;;;;;;11.27;7.60;;;;;;;;;;1049184;28;20051;-66
2023/09/18 00:59:09;;;;;;;8.80;7.60;;;;;;;;;;1047701;28;20082;-65
2023/09/18 00:59:40;;;;;;;10.45;7.53;;;;;;;;;;1046792;28;20846;-65
2023/09/18 01:00:16;;;;;;;10.18;7.53;;;;;;;;;;1047498;28;20494;-66
2023/09/18 01:00:50;;;;;;;10.10;6.88;;;;;;;;;;1052168;28;20059;-65
2023/09/18 01:01:22;;;;;;;11.63;7.05;;;;;;;;;;1053630;28;20051;-67
2023/09/18 01:01:53;;;;;;;11.95;7.30;;;;;;;;;;1049829;28;20588;-65
2023/09/18 01:02:24;;;;;;;9.65;8.30;;;;;;;;;;1047066;28;20205;-65
2023/09/18 01:02:55;;;;;;;10.30;7.80;;;;;;;;;;1048061;28;20517;-65
2023/09/18 01:03:25;;;;;;;8.38;7.15;;;;;;;;;;1046414;28;20818;-66
2023/09/18 01:03:57;;;;;;;10.05;7.07;;;;;;;;;;1047706;28;20067;-66
2023/09/18 01:04:29;;;;;;;9.40;7.72;;;;;;;;;;1048027;28;20059;-64
2023/09/18 01:05:00;;;;;;;10.35;7.13;;;;;;;;;;1049290;28;20384;-66
2023/09/18 01:05:35;;;;;;;11.02;7.32;;;;;;;;;;1049915;28;20555;-65
2023/09/18 01:06:06;;;;;;;8.65;7.75;;;;;;;;;;1048753;28;20140;-65
2023/09/18 01:06:36;;;;;;;8.77;6.82;;;;;;;;;;1046936;28;20056;-65
2023/09/18 01:07:07;;;;;;;10.15;7.63;;;;;;;;;;1049005;28;20051;-66
2023/09/18 01:07:38;;;;;;;11.75;7.50;;;;;;;;;;1049637;28;20059;-66
2023/09/18 01:08:08;;;;;;;9.80;7.40;;;;;;;;;;1047625;28;20052;-66
2023/09/18 01:08:39;;;;;;;10.85;7.10;;;;;;;;;;1046058;28;20538;-65
2023/09/18 01:09:12;;;;;;;9.18;7.20;;;;;;;;;;1050101;28;20070;-65
2023/09/18 01:09:45;;;;;;;13.48;7.45;;;;;;;;;;1048997;28;20048;-66
2023/09/18 01:10:16;;;;;;;10.88;7.65;;;;;;;;;;1047168;28;20048;-66
2023/09/18 01:11:14;;;;;;;8.25;7.45;;;;;;;;;;1047306;28;20127;-66
2023/09/18 01:12:05;;;;;;;10.55;7.00;;;;;;;;;;1052100;28;20047;-67
2023/09/18 01:12:54;;;;;;;9.15;7.20;;;;;;;;;;1052137;28;20049;-65
2023/09/18 01:13:35;;;;;;;12.70;8.07;;;;;;;;;;1051684;28;20389;-66
2023/09/18 01:14:31;;;;;;;9.05;7.50;;;;;;;;;;1052859;28;20047;-66
2023/09/18 01:15:02;;;;;;;9.07;7.78;;;;;;;;;;1050625;28;20388;-64
2023/09/18 01:15:41;;;;;;;9.75;7.50;;;;;;;;;;1051830;28;20502;-65
2023/09/18 01:16:20;;;;;;;10.00;7.40;;;;;;;;;;1050242;28;20662;-65
2023/09/18 01:16:54;;;;;;;10.88;7.03;;;;;;;;;;1048807;28;20461;-66
2023/09/18 01:17:26;;;;;;;9.52;7.68;;;;;;;;;;1050400;28;20044;-65
2023/09/18 01:17:56;;;;;;;9.30;7.63;;;;;;;;;;1050703;28;20044;-65
2023/09/18 01:18:27;;;;;;;10.90;7.65;;;;;;;;;;1053423;28;20048;-64
2023/09/18 01:18:57;;;;;;;9.00;7.40;;;;;;;;;;1053407;28;20059;-66
2023/09/18 01:19:36;;;;;;;11.43;8.50;;;;;;;;;;1051164;28;20056;-64
2023/09/18 01:20:11;;;;;;;9.85;7.25;;;;;;;;;;1051456;28;20044;-64
2023/09/18 01:20:43;;;;;;;8.82;7.93;;;;;;;;;;1053402;28;20044;-66
2023/09/18 01:21:14;;;;;;;9.88;8.07;;;;;;;;;;1050078;28;20063;-66
2023/09/18 01:21:45;;;;;;;11.95;7.55;;;;;;;;;;1049705;28;20131;-65
2023/09/18 01:22:18;;;;;;;11.77;8.18;;;;;;;;;;1052470;28;20059;-64
2023/09/18 01:22:49;;;;;;;10.75;8.55;;;;;;;;;;1050115;28;20065;-65
2023/09/18 01:23:20;;;;;;;10.57;8.07;;;;;;;;;;1051130;28;20047;-65
2023/09/18 01:23:51;;;;;;;9.80;7.75;;;;;;;;;;1053884;28;20070;-65
2023/09/18 01:24:22;;;;;;;12.50;7.70;;;;;;;;;;1052901;28;20077;-65
2023/09/18 01:24:53;;;;;;;9.52;7.97;;;;;;;;;;1050013;28;20069;-66
2023/09/18 01:25:23;;;;;;;11.75;9.13;;;;;;;;;;1051824;28;20048;-67
2023/09/18 01:25:53;;;;;;;9.68;8.52;;;;;;;;;;1054117;28;20059;-65
2023/09/18 01:26:24;;;;;;;9.52;7.47;;;;;;;;;;1053915;28;20047;-66
2023/09/18 01:26:54;;;;;;;8.90;8.00;;;;;;;;;;1051609;28;21327;-65
2023/09/18 01:27:25;;;;;;;8.52;7.63;;;;;;;;;;1052330;28;20048;-65
2023/09/18 01:27:55;;;;;;;11.93;8.88;;;;;;;;;;1053222;28;20373;-66
2023/09/18 01:28:26;;;;;;;10.57;8.15;;;;;;;;;;1053691;28;20043;-66
2023/09/18 01:28:57;;;;;;;10.23;8.38;;;;;;;;;;1051038;28;20083;-66
2023/09/18 01:29:27;;;;;;;10.95;8.80;;;;;;;;;;1052272;27;20044;-66
2023/09/18 01:29:58;;;;;;;11.65;8.40;;;;;;;;;;1049906;28;20055;-64
2023/09/18 01:30:28;;;;;;;14.40;8.55;;;;;;;;;;1051787;28;20192;-67
2023/09/18 01:30:59;;;;;;;9.95;8.52;;;;;;;;;;1052315;28;20044;-65
2023/09/18 01:31:29;;;;;;;10.82;8.25;;;;;;;;;;1052229;28;21054;-65
2023/09/18 01:32:00;;;;;;;16.10;8.13;;;;;;;;;;1051953;28;20055;-65
2023/09/18 01:32:32;;;;;;;11.55;8.18;;;;;;;;;;1049443;28;20075;-65
2023/09/18 01:33:04;;;;;;;9.40;8.40;;;;;;;;;;1051505;28;20050;-66
2023/09/18 01:33:36;;;;;;;11.45;8.60;;;;;;;;;;1051662;28;20051;-64
2023/09/18 01:34:07;;;;;;;9.52;8.40;;;;;;;;;;1053292;28;20046;-66
2023/09/18 01:34:41;;;;;;;9.95;8.50;;;;;;;;;;1053364;28;20058;-66
2023/09/18 01:35:13;;;;;;;12.38;9.05;;;;;;;;;;1053293;28;20134;-66
2023/09/18 01:35:44;;;;;;;10.32;8.52;;;;;;;;;;1050670;28;20063;-65
2023/09/18 01:36:16;;;;;;;11.55;8.32;;;;;;;;;;1052386;28;20436;-66
2023/09/18 01:36:49;;;;;;;11.30;8.52;;;;;;;;;;1051422;28;20059;-65
2023/09/18 01:37:23;;;;;;;12.63;8.65;;;;;;;;;;1051260;28;20048;-66
2023/09/18 01:37:54;;;;;;;12.13;8.93;;;;;;;;;;1050280;28;20055;-66
2023/09/18 01:38:26;;;;;;;12.70;8.50;;;;;;;;;;1052752;28;20052;-65
2023/09/18 01:38:57;;;;;;;13.82;8.90;;;;;;;;;;1051672;28;20506;-65
2023/09/18 01:39:31;;;;;;;9.45;8.15;;;;;;;;;;1053468;28;20392;-65
2023/09/18 01:40:06;;;;;;;10.15;8.23;;;;;;;;;;1053841;28;20048;-66
2023/09/18 01:40:37;;;;;;;13.15;8.80;;;;;;;;;;1051988;28;20130;-65
2023/09/18 01:41:09;;;;;;;11.45;8.60;;;;;;;;;;1050314;28;20176;-66
2023/09/18 01:41:40;;;;;;;9.02;8.02;;;;;;;;;;1051993;28;23338;-66
2023/09/18 01:42:11;;;;;;;10.98;8.43;;;;;;;;;;1054082;28;20066;-64
2023/09/18 01:42:43;;;;;;;12.98;8.98;;;;;;;;;;1052935;28;20151;-65
2023/09/18 01:43:13;;;;;;;9.82;8.43;;;;;;;;;;1053171;28;20661;-66
2023/09/18 01:43:44;;;;;;;14.02;8.32;;;;;;;;;;1051522;28;20047;-65
2023/09/18 01:44:14;;;;;;;11.23;8.35;;;;;;;;;;1051361;28;20065;-65
2023/09/18 01:44:47;;;;;;;13.15;8.80;;;;;;;;;;1050888;28;20036;-66
2023/09/18 01:45:17;;;;;;;10.85;8.10;;;;;;;;;;1051044;28;20048;-65
2023/09/18 01:45:49;;;;;;;12.20;8.45;;;;;;;;;;1050085;28;20048;-65
2023/09/18 01:46:20;;;;;;;9.38;8.38;;;;;;;;;;1050740;28;20577;-65
2023/09/18 01:46:55;;;;;;;10.02;8.48;;;;;;;;;;1053289;28;20051;-66
2023/09/18 01:47:29;;;;;;;10.55;8.20;;;;;;;;;;1053080;28;20082;-65
2023/09/18 01:47:59;;;;;;;9.70;8.05;;;;;;;;;;1053250;28;20146;-66
2023/09/18 01:48:30;;;;;;;12.38;8.40;;;;;;;;;;1053055;28;20387;-65
2023/09/18 01:49:00;;;;;;;11.43;9.38;;;;;;;;;;1053703;28;20044;-65
2023/09/18 01:49:36;;;;;;;12.70;9.20;;;;;;;;;;1052319;27;20768;-65
2023/09/18 01:50:07;;;;;;;15.57;9.50;;;;;;;;;;1054735;28;20055;-65
2023/09/18 01:50:40;;;;;;;11.93;9.05;;;;;;;;;;1051091;28;20048;-67
2023/09/18 01:51:13;;;;;;;10.48;8.68;;;;;;;;;;1052391;28;20047;-67
2023/09/18 01:51:44;;;;;;;11.25;8.57;;;;;;;;;;1050688;28;20050;-67
2023/09/18 01:52:14;;;;;;;12.93;9.13;;;;;;;;;;1052338;28;20039;-64
2023/09/18 01:52:45;;;;;;;17.10;10.00;;;;;;;;;;1051609;28;20124;-65
2023/09/18 01:53:15;;;;;;;11.18;9.30;;;;;;;;;;1050716;28;20416;-66
2023/09/18 01:53:46;;;;;;;13.55;9.73;;;;;;;;;;1049652;28;20054;-64
2023/09/18 01:54:17;;;;;;;14.10;9.70;;;;;;;;;;1051519;28;20172;-65
2023/09/18 01:54:47;;;;;;;10.80;8.60;;;;;;;;;;1053405;28;20052;-66
2023/09/18 01:55:18;;;;;;;12.75;9.45;;;;;;;;;;1052576;28;20452;-67
2023/09/18 01:55:48;;;;;;;13.88;9.98;;;;;;;;;;1052386;28;20072;-66
2023/09/18 01:56:19;;;;;;;14.43;9.98;;;;;;;;;;1052062;28;20109;-65
2023/09/18 01:56:49;;;;;;;15.00;9.65;;;;;;;;;;1051444;28;20399;-66
2023/09/18 01:57:20;;;;;;;12.30;9.23;;;;;;;;;;1054547;28;20047;-65
2023/09/18 01:57:50;;;;;;;11.18;9.38;;;;;;;;;;1053772;28;20107;-66
2023/09/18 01:58:21;;;;;;;13.70;9.10;;;;;;;;;;1053615;28;20073;-64
2023/09/18 01:58:52;;;;;;;11.13;9.02;;;;;;;;;;1053461;28;20484;-65
2023/09/18 01:59:22;;;;;;;12.63;9.63;;;;;;;;;;1052383;28;20438;-65
2023/09/18 01:59:53;;;;;;;12.88;9.23;;;;;;;;;;1054369;28;20051;-65
2023/09/18 02:00:23;;;;;;;11.80;9.52;;;;;;;;;;1052647;28;20047;-66
2023/09/18 02:00:54;;;;;;;14.65;9.10;;;;;;;;;;1052235;28;20412;-66
2023/09/18 02:01:24;;;;;;;13.05;9.18;;;;;;;;;;1052706;28;20164;-66
2023/09/18 02:01:55;;;;;;;11.43;8.43;;;;;;;;;;1050759;28;20171;-66
2023/09/18 02:02:25;;;;;;;11.07;8.88;;;;;;;;;;1052598;28;20043;-66
2023/09/18 02:02:56;;;;;;;11.68;9.23;;;;;;;;;;1052728;28;20043;-66
2023/09/18 02:03:27;;;;;;;10.52;9.38;;;;;;;;;;1049748;28;20086;-66
2023/09/18 02:03:57;;;;;;;14.68;9.10;;;;;;;;;;1050484;28;20488;-66
2023/09/18 02:04:28;;;;;;;14.55;9.25;;;;;;;;;;1050116;28;20769;-67
2023/09/18 02:04:58;;;;;;;12.32;9.60;;;;;;;;;;1053164;28;20631;-66
2023/09/18 02:05:30;;;;;;;15.27;9.77;;;;;;;;;;1052372;28;20634;-64
2023/09/18 02:06:00;;;;;;;13.35;9.60;;;;;;;;;;1050343;28;20048;-65
2023/09/18 02:06:31;;;;;;;14.60;9.45;;;;;;;;;;1051791;28;20146;-66
2023/09/18 02:07:01;;;;;;;12.00;9.25;;;;;;;;;;1053936;28;20090;-65
2023/09/18 02:07:32;;;;;;;11.45;9.40;;;;;;;;;;1051544;28;20077;-64
2023/09/18 02:08:03;;;;;;;11.55;9.40;;;;;;;;;;1053684;28;20465;-66
2023/09/18 02:08:34;;;;;;;13.18;9.30;;;;;;;;;;1050712;28;20648;-65
2023/09/18 02:09:04;;;;;;;12.43;9.40;;;;;;;;;;1052418;28;20059;-67
2023/09/18 02:09:35;;;;;;;10.25;9.07;;;;;;;;;;1052120;28;20047;-65
2023/09/18 02:10:06;;;;;;;12.65;9.10;;;;;;;;;;1053427;28;20046;-65
2023/09/18 02:10:37;;;;;;;13.98;9.98;;;;;;;;;;1049603;28;20419;-65
2023/09/18 02:11:07;;;;;;;10.80;8.90;;;;;;;;;;1050107;28;20579;-66
2023/09/18 02:11:42;;;;;;;10.40;9.02;;;;;;;;;;1050343;28;20055;-66
2023/09/18 02:12:17;;;;;;;11.98;9.40;;;;;;;;;;1052086;28;20080;-66
2023/09/18 02:12:47;;;;;;;10.32;8.88;;;;;;;;;;1053553;28;20062;-65
2023/09/18 02:13:18;;;;;;;11.38;8.77;;;;;;;;;;1050171;28;20063;-66
2023/09/18 02:13:48;;;;;;;10.73;8.70;;;;;;;;;;1050665;28;20051;-65
2023/09/18 02:14:19;;;;;;;11.80;9.38;;;;;;;;;;1049643;28;20052;-63
2023/09/18 02:14:50;;;;;;;11.18;8.73;;;;;;;;;;1053661;28;20054;-65
2023/09/18 02:15:20;;;;;;;14.82;9.88;;;;;;;;;;1052234;28;20052;-65
2023/09/18 02:15:52;;;;;;;10.93;8.70;;;;;;;;;;1051969;28;20035;-66
2023/09/18 02:16:24;;;;;;;12.27;9.02;;;;;;;;;;1052058;28;20061;-65
2023/09/18 02:16:54;;;;;;;10.85;9.15;;;;;;;;;;1052923;28;20048;-65
2023/09/18 02:17:24;;;;;;;14.88;8.98;;;;;;;;;;1053541;28;20047;-67
2023/09/18 02:17:55;;;;;;;12.13;9.55;;;;;;;;;;1052750;28;20055;-65
2023/09/18 02:18:25;;;;;;;11.52;9.32;;;;;;;;;;1051969;28;20509;-65
2023/09/18 02:18:56;;;;;;;13.00;9.70;;;;;;;;;;1053163;28;20050;-64
2023/09/18 02:19:26;;;;;;;11.32;8.90;;;;;;;;;;1053875;28;20454;-65
2023/09/18 02:19:58;;;;;;;13.02;9.40;;;;;;;;;;1054280;28;20126;-67
2023/09/18 02:20:28;;;;;;;11.13;9.15;;;;;;;;;;1050282;28;20149;-65
2023/09/18 02:20:59;;;;;;;12.50;9.27;;;;;;;;;;1052456;28;20048;-65
2023/09/18 02:21:30;;;;;;;11.77;8.95;;;;;;;;;;1052597;28;20061;-66
2023/09/18 02:22:02;;;;;;;12.13;9.20;;;;;;;;;;1053937;28;20047;-66
2023/09/18 02:22:33;;;;;;;10.70;9.15;;;;;;;;;;1052241;28;20102;-66
2023/09/18 02:23:03;;;;;;;12.52;8.18;;;;;;;;;;1050839;28;20040;-65
2023/09/18 02:23:34;;;;;;;10.38;9.27;;;;;;;;;;1050449;28;20052;-66
2023/09/18 02:24:05;;;;;;;10.57;8.70;;;;;;;;;;1051280;28;20051;-65
2023/09/18 02:24:35;;;;;;;18.17;9.07;;;;;;;;;;1049717;28;20128;-66
2023/09/18 02:25:07;;;;;;;11.38;9.20;;;;;;;;;;1052985;28;20128;-66
2023/09/18 02:25:38;;;;;;;10.93;9.60;;;;;;;;;;1053366;28;20051;-65
2023/09/18 02:26:09;;;;;;;10.55;9.45;;;;;;;;;;1054004;28;20096;-65
2023/09/18 02:26:40;;;;;;;16.25;8.80;;;;;;;;;;1052243;28;20136;-66
2023/09/18 02:27:11;;;;;;;12.80;9.15;;;;;;;;;;1049977;28;20177;-65
2023/09/18 02:27:42;;;;;;;13.23;8.73;;;;;;;;;;1051695;28;20058;-68
2023/09/18 02:28:13;;;;;;;11.60;9.23;;;;;;;;;;1054000;28;20047;-66
2023/09/18 02:28:43;;;;;;;12.65;8.70;;;;;;;;;;1053234;28;20714;-65
2023/09/18 02:29:14;;;;;;;10.15;9.00;;;;;;;;;;1054343;28;20052;-65
2023/09/18 02:29:45;;;;;;;11.32;9.07;;;;;;;;;;1052931;28;20051;-65
2023/09/18 02:30:15;;;;;;;14.23;9.77;;;;;;;;;;1051835;28;20055;-65
2023/09/18 02:30:46;;;;;;;12.50;9.77;;;;;;;;;;1052006;28;20047;-64
2023/09/18 02:31:16;;;;;;;12.35;8.95;;;;;;;;;;1052084;28;20063;-66
2023/09/18 02:31:47;;;;;;;10.63;9.10;;;;;;;;;;1053355;28;20062;-66
2023/09/18 02:32:19;;;;;;;10.57;8.73;;;;;;;;;;1051674;28;20062;-65
2023/09/18 02:32:50;;;;;;;10.18;9.18;;;;;;;;;;1053717;28;20085;-65
2023/09/18 02:33:20;;;;;;;10.52;9.25;;;;;;;;;;1051258;28;20047;-65
2023/09/18 02:33:51;;;;;;;13.02;9.88;;;;;;;;;;1051811;28;20138;-64
2023/09/18 02:34:21;;;;;;;12.13;8.80;;;;;;;;;;1051669;28;20063;-66
2023/09/18 02:34:52;;;;;;;10.90;9.15;;;;;;;;;;1053719;28;20052;-66
2023/09/18 02:35:22;;;;;;;11.60;8.60;;;;;;;;;;1053879;28;20054;-66
2023/09/18 02:35:53;;;;;;;11.07;9.43;;;;;;;;;;1054621;28;20058;-65
2023/09/18 02:36:23;;;;;;;10.57;9.30;;;;;;;;;;1054106;28;20775;-65
2023/09/18 02:36:54;;;;;;;11.15;8.70;;;;;;;;;;1051831;28;20048;-65
2023/09/18 02:37:25;;;;;;;10.93;8.52;;;;;;;;;;1052654;28;20628;-65
2023/09/18 02:37:55;;;;;;;13.07;9.00;;;;;;;;;;1054318;28;20078;-65
2023/09/18 02:38:28;;;;;;;15.57;9.35;;;;;;;;;;1054220;28;20039;-66
2023/09/18 02:38:59;;;;;;;18.20;8.63;;;;;;;;;;1052307;28;20410;-65
2023/09/18 02:39:29;;;;;;;11.75;8.63;;;;;;;;;;1053283;28;20682;-65
2023/09/18 02:40:00;;;;;;;17.17;9.35;;;;;;;;;;1050382;28;20048;-64
2023/09/18 02:40:30;;;;;;;12.98;9.40;;;;;;;;;;1050617;28;20051;-66
2023/09/18 02:41:01;;;;;;;13.02;9.52;;;;;;;;;;1053306;28;20756;-67
2023/09/18 02:41:32;;;;;;;12.50;8.70;;;;;;;;;;1053754;28;20047;-65
2023/09/18 02:42:02;;;;;;;10.45;8.40;;;;;;;;;;1051413;28;20861;-65
2023/09/18 02:42:33;;;;;;;13.93;8.82;;;;;;;;;;1051722;28;20146;-66
2023/09/18 02:43:03;;;;;;;16.17;8.98;;;;;;;;;;1053709;28;20946;-66
2023/09/18 02:43:34;;;;;;;10.48;8.82;;;;;;;;;;1054624;28;20149;-65
2023/09/18 02:44:05;;;;;;;15.10;9.45;;;;;;;;;;1052698;28;20494;-67
2023/09/18 02:44:35;;;;;;;14.60;9.23;;;;;;;;;;1052285;28;20051;-65
2023/09/18 02:45:08;;;;;;;11.43;9.18;;;;;;;;;;1054091;28;20055;-66
2023/09/18 02:45:40;;;;;;;11.38;9.13;;;;;;;;;;1054598;28;20134;-65
2023/09/18 02:46:10;;;;;;;12.13;9.30;;;;;;;;;;1055030;28;20066;-67
2023/09/18 02:46:43;;;;;;;13.15;9.20;;;;;;;;;;1053180;28;20082;-66
2023/09/18 02:47:13;;;;;;;17.08;9.48;;;;;;;;;;1053032;28;20058;-64
2023/09/18 02:47:44;;;;;;;12.57;8.93;;;;;;;;;;1053478;28;20070;-65
2023/09/18 02:48:14;;;;;;;11.13;9.45;;;;;;;;;;1052711;28;20501;-66
2023/09/18 02:48:45;;;;;;;10.52;8.65;;;;;;;;;;1050253;28;20071;-65
2023/09/18 02:49:15;;;;;;;9.80;8.63;;;;;;;;;;1053999;28;20054;-66
2023/09/18 02:49:46;;;;;;;12.15;8.77;;;;;;;;;;1053998;28;20627;-66
2023/09/18 02:50:17;;;;;;;12.90;9.18;;;;;;;;;;1055631;28;20703;-65
2023/09/18 02:50:47;;;;;;;11.02;8.35;;;;;;;;;;1052878;27;20047;-65
2023/09/18 02:51:18;;;;;;;15.77;9.10;;;;;;;;;;1052791;28;20059;-66
2023/09/18 02:51:49;;;;;;;11.43;9.10;;;;;;;;;;1054608;28;20605;-65
2023/09/18 02:52:20;;;;;;;11.65;9.50;;;;;;;;;;1054950;28;20058;-65
2023/09/18 02:52:50;;;;;;;15.30;8.88;;;;;;;;;;1053710;28;20067;-66
2023/09/18 02:53:23;;;;;;;12.65;8.77;;;;;;;;;;1052825;28;20121;-66
2023/09/18 02:53:53;;;;;;;14.93;9.05;;;;;;;;;;1051379;28;20047;-65
2023/09/18 02:54:24;;;;;;;16.85;8.85;;;;;;;;;;1053139;28;20056;-65
2023/09/18 02:54:54;;;;;;;10.70;9.18;;;;;;;;;;1055018;28;20051;-65
2023/09/18 02:55:25;;;;;;;11.93;9.02;;;;;;;;;;1054800;27;20178;-65
2023/09/18 02:55:57;;;;;;;10.45;9.02;;;;;;;;;;1053764;28;20044;-65
2023/09/18 02:56:28;;;;;;;11.63;8.75;;;;;;;;;;1051400;28;20044;-66
2023/09/18 02:56:58;;;;;;;13.18;9.82;;;;;;;;;;1050990;28;20052;-65
2023/09/18 02:57:29;;;;;;;10.32;9.02;;;;;;;;;;1051081;28;20072;-65
2023/09/18 02:57:59;;;;;;;12.15;9.20;;;;;;;;;;1051387;28;20045;-65
2023/09/18 02:58:30;;;;;;;12.52;8.57;;;;;;;;;;1052284;28;20048;-66
2023/09/18 02:59:01;;;;;;;11.52;9.07;;;;;;;;;;1051882;28;20052;-65
2023/09/18 02:59:32;;;;;;;10.60;9.20;;;;;;;;;;1052017;28;20055;-66
2023/09/18 03:00:03;;;;;;;12.60;9.15;;;;;;;;;;1053264;28;20471;-67
2023/09/18 03:00:34;;;;;;;11.90;9.63;;;;;;;;;;1053965;28;20078;-67
2023/09/18 03:01:06;;;;;;;14.38;8.82;;;;;;;;;;1052207;28;20051;-65
2023/09/18 03:01:37;;;;;;;11.27;9.65;;;;;;;;;;1052039;28;20062;-64
2023/09/18 03:02:08;;;;;;;11.48;9.48;;;;;;;;;;1053276;28;20047;-66
2023/09/18 03:02:38;;;;;;;11.68;9.13;;;;;;;;;;1052361;28;20054;-65
2023/09/18 03:03:10;;;;;;;10.27;9.13;;;;;;;;;;1052908;28;20047;-65
2023/09/18 03:03:41;;;;;;;13.27;9.10;;;;;;;;;;1052837;28;20051;-65
2023/09/18 03:04:12;;;;;;;10.90;9.10;;;;;;;;;;1051887;28;20044;-66
2023/09/18 03:04:42;;;;;;;13.93;9.40;;;;;;;;;;1051432;27;20052;-65
2023/09/18 03:05:13;;;;;;;14.05;9.30;;;;;;;;;;1053465;28;20047;-65
2023/09/18 03:05:44;;;;;;;10.65;9.55;;;;;;;;;;1053251;27;21065;-63
2023/09/18 03:06:14;;;;;;;11.23;9.77;;;;;;;;;;1054854;28;20055;-66
2023/09/18 03:06:45;;;;;;;10.63;9.50;;;;;;;;;;1051443;27;20043;-66